Apex, NC (27523)

12:55 AM EDT on September 29, 2016 (GMT -0400)
| | Change Station

Elev -9999 ft 0.00 °N, 0.00 °E | Updated

Thunderstorm
Thunderstorm
68 °F
Feels Like 68 °F
N
5
Wind Variable Wind from SE
Gusts mph

Today
High -- | Low -- °F
--% Chance of Precip.
Yesterday
High -- | Low -- °F
Precip. -- in
Pressure 29.98 in
Visibility 9.0 miles
Clouds Few 700 ft
Few 2600 ft
Overcast 11000 ft
Dew Point 67 °F
Humidity 97%
Rainfall --
Snow Depth Not available.
7:09 AM 7:01 PM
Waning Crescent, 3% visible
METAR KRDU 290451Z 14004KT 9SM -TSRA FEW007 FEW026CB OVC110 19/18 A2999 RMK AO2 SLP150 FRQ LTGICCG N-E-S TS N-E-S MOV NE P0041 T01890183 403000189 $
Pressure 29.98 in
Visibility 9.0 miles
Clouds Few 700 ft
Few 2600 ft
Overcast 11000 ft
Dew Point 67 °F
Humidity 97%
Rainfall --
Snow Depth Not available.
7:09 AM 7:01 PM
Waning Crescent, 3% visible
METAR KRDU 290451Z 14004KT 9SM -TSRA FEW007 FEW026CB OVC110 19/18 A2999 RMK AO2 SLP150 FRQ LTGICCG N-E-S TS N-E-S MOV NE P0041 T01890183 403000189 $

10-Day Weather Forecast

Almanac

Astronomy

Sep. 29, 2016 Rise Set
Actual Time
Civil Twilight
Nautical Twilight
Astronomical Twilight
Moon
Length of Visible Light
Length of Day
Tomorrow will be .
, % of the Moon is Illuminated

Today's Extremes

State Highs State Lows

Community

WunderPhotos

Upload Photos

1,942,435 photos uploaded!

WunderBlog® & News

Nearby

Air Quality

  Air Quality AQ Index Pollutant
Not available.

Snow Depth

Station Depth Elevation

Earthquake Activity

City Distance Mag. Time & Date
Minimum magnitude displayed is 2.5.

Coastal Water Temperatures

Place Temperature

Stations

Nearby Weather Stations

Station Location Temp. Windchill Dew Point Humidity Wind Precip. Elev Updated Type
                   

Watches & Warnings

There are currently no watches in effect.